createdAt,value
2022-12-19T00:02:44.874Z,26.23
2022-12-19T00:05:50.494Z,23.52
2022-12-19T00:08:56.790Z,25.08
2022-12-19T00:11:59.603Z,21.77
2022-12-19T00:15:03.602Z,22.48
2022-12-19T00:18:07.809Z,21.58
2022-12-19T00:21:14.045Z,22.65
2022-12-19T00:24:20.693Z,19.92
2022-12-19T00:27:24.226Z,23.30
2022-12-19T00:30:28.377Z,23.75
2022-12-19T00:36:54.618Z,24.40
2022-12-19T00:39:58.618Z,28.05
2022-12-19T00:43:02.598Z,24.47
2022-12-19T00:46:07.639Z,24.45
2022-12-19T00:49:11.936Z,22.00
2022-12-19T00:52:16.059Z,22.45
2022-12-19T00:55:20.191Z,24.02
2022-12-19T00:58:23.220Z,19.23
2022-12-19T01:01:29.383Z,24.50
2022-12-19T01:04:38.263Z,27.63
2022-12-19T01:07:45.358Z,21.98
2022-12-19T01:10:49.434Z,22.77
2022-12-19T01:13:52.402Z,24.90
2022-12-19T01:16:55.184Z,23.60
2022-12-19T01:19:59.154Z,23.73
2022-12-19T01:23:03.322Z,21.77
2022-12-19T01:26:07.650Z,22.83
2022-12-19T01:29:10.643Z,25.00
2022-12-19T01:32:14.730Z,20.10
2022-12-19T01:35:22.031Z,25.17
2022-12-19T01:38:27.481Z,24.00
2022-12-19T01:41:31.387Z,21.70
2022-12-19T01:44:36.524Z,20.73
2022-12-19T01:47:46.539Z,21.45
2022-12-19T01:54:26.478Z,18.92
2022-12-19T02:00:53.533Z,19.03
2022-12-19T02:03:58.325Z,22.08
2022-12-19T02:07:10.885Z,21.63
2022-12-19T02:10:20.801Z,20.92
2022-12-19T02:13:26.264Z,23.30
2022-12-19T02:16:48.899Z,22.50
2022-12-19T02:20:20.860Z,16.30
2022-12-19T02:23:55.690Z,19.67
2022-12-19T02:27:13.482Z,22.25
2022-12-19T02:30:18.699Z,19.48
2022-12-19T02:33:43.017Z,20.67
2022-12-19T02:36:54.069Z,23.20
2022-12-19T02:40:03.546Z,25.27
2022-12-19T02:43:09.422Z,19.80
2022-12-19T02:46:13.078Z,24.35
2022-12-19T02:49:21.913Z,22.13
2022-12-19T02:52:49.273Z,22.00
2022-12-19T02:56:10.435Z,21.17
2022-12-19T02:59:36.580Z,25.60
2022-12-19T03:03:00.666Z,22.10
2022-12-19T03:06:16.574Z,27.07
2022-12-19T03:09:28.721Z,22.08
2022-12-19T03:12:35.435Z,24.95
2022-12-19T03:15:40.460Z,22.08
2022-12-19T03:18:45.390Z,21.30
2022-12-19T03:21:52.799Z,22.80
2022-12-19T03:24:56.804Z,21.33
2022-12-19T03:28:04.801Z,23.55
2022-12-19T03:31:11.585Z,25.02
2022-12-19T03:34:20.924Z,20.58
2022-12-19T03:37:29.354Z,24.23
2022-12-19T03:40:37.023Z,23.88
2022-12-19T03:43:40.162Z,22.52
2022-12-19T03:46:50.762Z,27.95
2022-12-19T03:49:53.826Z,25.27
2022-12-19T03:56:36.443Z,29.02
2022-12-19T03:59:44.064Z,26.02
2022-12-19T04:02:52.072Z,24.63
2022-12-19T04:05:56.129Z,23.88
2022-12-19T04:09:03.422Z,24.63
2022-12-19T04:12:09.736Z,22.75
2022-12-19T04:15:14.272Z,23.85
2022-12-19T04:18:21.099Z,23.50
2022-12-19T04:21:29.146Z,27.50
2022-12-19T04:24:38.486Z,25.57
2022-12-19T04:27:46.238Z,25.10
2022-12-19T04:30:52.017Z,25.98
2022-12-19T04:33:56.136Z,25.35
2022-12-19T04:36:59.134Z,29.50
2022-12-19T04:40:04.570Z,25.53
2022-12-19T04:43:08.391Z,27.27
2022-12-19T04:46:12.476Z,26.92
2022-12-19T04:49:16.889Z,23.63
2022-12-19T04:52:19.837Z,27.93
2022-12-19T04:55:25.189Z,27.40
2022-12-19T04:58:28.396Z,24.30
2022-12-19T05:01:32.520Z,30.08
2022-12-19T05:04:36.705Z,24.60
2022-12-19T05:07:40.532Z,28.23
2022-12-19T05:10:45.896Z,27.20
2022-12-19T05:13:50.146Z,33.92
2022-12-19T05:17:01.114Z,27.60
2022-12-19T05:20:06.988Z,29.02
2022-12-19T05:23:16.181Z,27.60
2022-12-19T05:26:22.455Z,26.27
2022-12-19T05:29:25.325Z,26.02
2022-12-19T05:32:33.418Z,26.95
2022-12-19T05:35:37.925Z,25.10
2022-12-19T05:38:41.012Z,29.90
2022-12-19T05:41:48.999Z,24.97
2022-12-19T05:44:51.961Z,26.60
2022-12-19T05:48:01.075Z,24.65
2022-12-19T05:51:05.923Z,23.60
2022-12-19T05:54:08.697Z,29.70
2022-12-19T05:57:14.157Z,30.73
2022-12-19T06:00:17.401Z,28.00
2022-12-19T06:03:21.529Z,23.63
2022-12-19T06:06:27.298Z,27.00
2022-12-19T06:09:30.240Z,26.43
2022-12-19T06:12:36.281Z,21.97
2022-12-19T06:15:40.241Z,29.13
2022-12-19T06:18:45.579Z,25.75
2022-12-19T06:21:49.876Z,24.02
2022-12-19T06:24:52.863Z,25.30
2022-12-19T06:27:58.211Z,28.77
2022-12-19T06:31:02.755Z,26.45
2022-12-19T06:34:06.705Z,26.40
2022-12-19T06:37:10.697Z,24.20
2022-12-19T06:40:33.861Z,21.83
2022-12-19T06:43:38.516Z,27.47
2022-12-19T06:50:04.558Z,26.13
2022-12-19T06:53:09.025Z,27.45
2022-12-19T06:56:14.535Z,24.87
2022-12-19T06:59:20.052Z,30.60
2022-12-19T07:02:28.393Z,27.60
2022-12-19T07:05:31.495Z,25.67
2022-12-19T07:11:58.511Z,25.17
2022-12-19T07:15:04.090Z,23.70
2022-12-19T07:18:10.357Z,25.58
2022-12-19T07:21:13.157Z,23.85
2022-12-19T07:24:16.382Z,26.40
2022-12-19T07:27:19.861Z,25.80
2022-12-19T07:30:25.232Z,22.83
2022-12-19T07:33:28.729Z,26.33
2022-12-19T07:36:31.562Z,25.53
2022-12-19T07:39:34.386Z,24.27
2022-12-19T07:42:36.968Z,23.95
2022-12-19T07:45:43.092Z,23.30
2022-12-19T07:48:46.157Z,23.50
2022-12-19T07:51:48.958Z,23.07
2022-12-19T07:54:51.709Z,25.35
2022-12-19T07:57:55.426Z,24.88
2022-12-19T08:01:02.026Z,22.33
2022-12-19T08:04:05.682Z,21.77
2022-12-19T08:07:08.776Z,27.43
2022-12-19T08:10:14.510Z,20.83
2022-12-19T08:13:17.229Z,21.65
2022-12-19T08:16:21.454Z,24.45
2022-12-19T08:19:27.454Z,20.60
2022-12-19T08:22:31.247Z,22.33
2022-12-19T08:25:35.333Z,22.60
2022-12-19T08:28:39.362Z,28.23
2022-12-19T08:31:43.651Z,26.38
2022-12-19T08:34:48.018Z,23.37
2022-12-19T08:37:51.487Z,22.50
2022-12-19T08:40:56.311Z,22.38
2022-12-19T08:43:59.274Z,20.90
2022-12-19T08:47:04.489Z,24.40
2022-12-19T08:50:08.081Z,23.40
2022-12-19T08:53:10.815Z,29.07
2022-12-19T08:56:15.552Z,21.45
2022-12-19T08:59:30.368Z,22.60
2022-12-19T09:02:35.840Z,24.40
2022-12-19T09:06:01.367Z,22.63
2022-12-19T09:09:03.966Z,26.33
2022-12-19T09:15:31.528Z,21.00
2022-12-19T09:18:36.039Z,25.60
2022-12-19T09:21:40.220Z,23.93
2022-12-19T09:24:42.919Z,26.37
2022-12-19T09:28:25.245Z,23.90
2022-12-19T09:31:13.747Z,20.98
2022-12-19T09:34:18.275Z,20.65
2022-12-19T09:37:26.671Z,24.60
2022-12-19T09:40:33.930Z,23.40
2022-12-19T09:43:48.706Z,23.10
2022-12-19T09:46:53.728Z,24.23
2022-12-19T09:50:01.004Z,20.35
2022-12-19T09:53:10.224Z,21.10
2022-12-19T09:56:18.181Z,27.30
2022-12-19T09:59:37.115Z,27.10
2022-12-19T10:02:49.605Z,26.63
2022-12-19T10:07:10.622Z,21.27
2022-12-19T10:11:59.370Z,27.67
2022-12-19T10:13:12.771Z,23.93
2022-12-19T10:16:25.767Z,21.73
2022-12-19T10:23:19.912Z,21.88
2022-12-19T10:26:31.470Z,22.63
2022-12-19T10:29:56.884Z,24.00
2022-12-19T10:33:07.145Z,23.45
2022-12-19T10:36:16.775Z,21.42
2022-12-19T10:39:31.509Z,24.45
2022-12-19T10:42:45.326Z,20.50
2022-12-19T10:45:52.550Z,22.77
2022-12-19T10:48:55.459Z,21.75
2022-12-19T10:52:00.755Z,21.10
2022-12-19T10:55:23.628Z,23.30
2022-12-19T10:58:29.191Z,21.97
2022-12-19T11:01:36.800Z,21.10
2022-12-19T11:04:42.271Z,21.08
2022-12-19T11:08:02.205Z,20.00
2022-12-19T11:12:51.140Z,23.67
2022-12-19T11:18:17.135Z,21.77
2022-12-19T11:27:39.971Z,24.40
2022-12-19T11:29:42.762Z,24.35
2022-12-19T11:29:54.953Z,20.92
2022-12-19T11:30:36.287Z,24.45
2022-12-19T11:35:25.256Z,24.17
2022-12-19T11:38:46.949Z,23.95
2022-12-19T11:42:00.108Z,25.58
2022-12-19T11:45:13.576Z,21.90
2022-12-19T11:48:23.869Z,25.20
2022-12-19T11:51:34.467Z,20.87
2022-12-19T11:54:44.780Z,25.48
2022-12-19T11:57:49.809Z,21.10
2022-12-19T12:01:03.036Z,23.77
2022-12-19T12:04:40.793Z,21.77
2022-12-19T12:09:33.319Z,20.63
2022-12-19T12:18:26.342Z,22.52
2022-12-19T12:25:24.875Z,25.13
2022-12-19T12:31:16.752Z,24.17
2022-12-19T12:31:26.378Z,24.90
2022-12-19T12:31:45.495Z,27.52
2022-12-19T12:31:50.993Z,25.07
2022-12-19T12:35:42.375Z,24.30
2022-12-19T12:41:09.256Z,23.63
2022-12-19T12:44:13.456Z,24.73
2022-12-19T12:47:21.880Z,27.25
2022-12-19T12:50:27.888Z,22.17
2022-12-19T12:53:36.293Z,27.67
2022-12-19T12:56:41.870Z,26.77
2022-12-19T12:59:46.964Z,25.13
2022-12-19T13:02:56.479Z,25.90
2022-12-19T13:06:08.354Z,27.23
2022-12-19T13:09:25.690Z,30.33
2022-12-19T13:12:47.917Z,27.33
2022-12-19T13:15:50.951Z,26.83
2022-12-19T13:19:21.069Z,28.65
2022-12-19T13:22:40.688Z,29.02
2022-12-19T13:25:54.965Z,26.90
2022-12-19T13:29:34.301Z,29.90
2022-12-19T13:33:11.518Z,27.10
2022-12-19T13:40:01.046Z,27.55
2022-12-19T13:40:20.976Z,25.17
2022-12-19T13:43:49.454Z,29.23
2022-12-19T13:46:52.965Z,26.27
2022-12-19T13:49:58.499Z,25.97
2022-12-19T13:53:01.463Z,29.17
2022-12-19T13:56:07.697Z,26.85
2022-12-19T13:59:12.091Z,24.85
2022-12-19T14:02:20.481Z,26.90
2022-12-19T14:05:32.257Z,25.70
2022-12-19T14:09:58.665Z,25.73
2022-12-19T14:13:52.961Z,27.50
2022-12-19T14:19:26.035Z,23.50
2022-12-19T14:22:28.815Z,25.40
2022-12-19T14:28:21.682Z,26.92
2022-12-19T14:29:05.602Z,25.83
2022-12-19T14:33:39.211Z,22.27
2022-12-19T14:36:12.225Z,22.53
2022-12-19T14:39:23.498Z,27.27
2022-12-19T14:43:56.711Z,25.65
2022-12-19T14:53:34.138Z,30.13
2022-12-19T14:54:10.511Z,25.88
2022-12-19T14:54:44.283Z,25.33
2022-12-19T14:59:59.775Z,27.85
2022-12-19T15:07:07.693Z,23.35
2022-12-19T15:11:09.297Z,25.37
2022-12-19T15:14:51.619Z,24.37
2022-12-19T15:17:02.256Z,25.50
2022-12-19T15:20:06.840Z,26.20
2022-12-19T15:23:14.118Z,27.00
2022-12-19T15:26:28.371Z,25.27
2022-12-19T15:29:34.201Z,25.70
2022-12-19T15:32:38.119Z,28.35
2022-12-19T15:35:41.795Z,27.50
2022-12-19T15:38:46.692Z,26.33
2022-12-19T15:45:17.902Z,26.00
2022-12-19T15:48:20.882Z,27.27
2022-12-19T15:51:25.093Z,30.25
2022-12-19T15:57:55.667Z,33.67
2022-12-19T16:01:03.683Z,29.03
2022-12-19T16:04:15.012Z,28.83
2022-12-19T16:07:19.554Z,29.00
2022-12-19T16:10:24.112Z,30.90
2022-12-19T16:13:29.978Z,30.23
2022-12-19T16:16:32.836Z,32.80
2022-12-19T16:19:39.145Z,31.48
2022-12-19T16:22:43.803Z,29.63
2022-12-19T16:25:50.600Z,32.72
2022-12-19T16:28:53.693Z,30.63
2022-12-19T16:31:56.598Z,34.53
2022-12-19T16:35:00.571Z,34.00
2022-12-19T16:38:03.286Z,30.27
2022-12-19T16:41:10.412Z,31.58
2022-12-19T16:44:19.467Z,32.17
2022-12-19T16:47:22.539Z,26.33
2022-12-19T16:50:27.124Z,30.80
2022-12-19T16:53:30.395Z,30.23
2022-12-19T16:56:36.658Z,34.58
2022-12-19T16:59:42.287Z,29.77
2022-12-19T17:02:49.618Z,26.63
2022-12-19T17:05:52.799Z,33.65
2022-12-19T17:08:55.518Z,31.55
2022-12-19T17:12:01.760Z,28.80
2022-12-19T17:15:07.889Z,32.40
2022-12-19T17:18:15.229Z,30.97
2022-12-19T17:21:20.151Z,34.35
2022-12-19T17:24:22.883Z,30.60
2022-12-19T17:27:26.980Z,29.38
2022-12-19T17:30:29.771Z,31.43
2022-12-19T17:33:37.930Z,32.63
2022-12-19T17:36:40.730Z,31.65
2022-12-19T17:39:44.935Z,26.80
2022-12-19T17:42:49.639Z,34.13
2022-12-19T17:45:53.715Z,32.80
2022-12-19T17:48:56.567Z,28.77
2022-12-19T17:52:00.894Z,29.33
2022-12-19T17:55:14.466Z,31.65
2022-12-19T17:58:18.677Z,27.80
2022-12-19T18:01:25.154Z,30.17
2022-12-19T18:04:31.016Z,30.30
2022-12-19T18:07:34.328Z,32.42
2022-12-19T18:10:37.270Z,30.20
2022-12-19T18:13:41.506Z,28.50
2022-12-19T18:16:45.250Z,30.90
2022-12-19T18:19:48.028Z,36.20
2022-12-19T18:22:50.755Z,31.58
2022-12-19T18:26:01.191Z,38.03
2022-12-19T18:29:06.118Z,35.20
2022-12-19T18:32:19.267Z,29.52
2022-12-19T18:35:23.962Z,33.25
2022-12-19T18:38:27.275Z,31.95
2022-12-19T18:44:53.447Z,32.37
2022-12-19T18:51:24.219Z,29.65
2022-12-19T18:54:28.634Z,34.00
2022-12-19T18:57:32.576Z,37.00
2022-12-19T19:00:39.727Z,34.00
2022-12-19T19:03:46.149Z,31.17
2022-12-19T19:06:52.177Z,29.58
2022-12-19T19:09:55.651Z,36.60
2022-12-19T19:13:06.620Z,34.30
2022-12-19T19:16:19.642Z,45.40
2022-12-19T19:19:22.602Z,33.33
2022-12-19T19:22:26.878Z,33.20
2022-12-19T19:25:29.796Z,33.40
2022-12-19T19:28:32.544Z,33.27
2022-12-19T19:31:40.685Z,34.73
2022-12-19T19:34:44.448Z,35.70
2022-12-19T19:37:50.194Z,30.58
2022-12-19T19:40:52.929Z,30.15
2022-12-19T19:43:56.968Z,32.07
2022-12-19T19:47:01.126Z,35.93
2022-12-19T19:50:06.055Z,30.40
2022-12-19T19:53:08.843Z,28.60
2022-12-19T19:56:13.263Z,30.15
2022-12-19T19:59:19.632Z,30.37
2022-12-19T20:02:25.709Z,26.60
2022-12-19T20:05:28.701Z,26.17
2022-12-19T20:08:39.226Z,34.75
2022-12-19T20:11:43.267Z,28.17
2022-12-19T20:14:47.281Z,29.40
2022-12-19T20:17:52.837Z,32.47
2022-12-19T20:20:55.618Z,27.48
2022-12-19T20:23:59.653Z,29.35
2022-12-19T20:27:03.227Z,30.90
2022-12-19T20:30:09.075Z,29.53
2022-12-19T20:33:13.447Z,26.63
2022-12-19T20:36:17.665Z,28.33
2022-12-19T20:39:22.277Z,29.60
2022-12-19T20:42:25.784Z,29.30
2022-12-19T20:45:29.733Z,24.90
2022-12-19T20:48:35.263Z,26.53
2022-12-19T20:51:39.407Z,27.83
2022-12-19T20:54:44.270Z,26.15
2022-12-19T20:57:47.283Z,27.23
2022-12-19T21:00:50.081Z,27.63
2022-12-19T21:03:54.490Z,27.00
2022-12-19T21:06:58.858Z,22.77
2022-12-19T21:10:06.293Z,27.70
2022-12-19T21:13:08.988Z,25.70
2022-12-19T21:22:58.897Z,27.42
2022-12-19T21:26:05.547Z,24.42
2022-12-19T21:29:08.278Z,27.30
2022-12-19T21:32:18.669Z,27.50
2022-12-19T21:35:24.202Z,29.23
2022-12-19T21:38:27.192Z,28.60
2022-12-19T21:41:31.213Z,27.40
2022-12-19T21:44:33.933Z,25.70
2022-12-19T21:47:40.608Z,25.80
2022-12-19T21:50:46.209Z,22.93
2022-12-19T21:53:49.413Z,31.00
2022-12-19T21:56:53.434Z,30.23
2022-12-19T21:59:56.189Z,24.38
2022-12-19T22:03:13.895Z,24.43
2022-12-19T22:06:27.615Z,28.90
2022-12-19T22:09:31.021Z,23.90
2022-12-19T22:12:35.428Z,27.10
2022-12-19T22:15:39.580Z,27.38
2022-12-19T22:18:44.423Z,24.57
2022-12-19T22:21:50.579Z,28.13
2022-12-19T22:24:53.525Z,26.08
2022-12-19T22:27:57.483Z,25.77
2022-12-19T22:31:01.825Z,25.52
2022-12-19T22:34:07.083Z,26.40
2022-12-19T22:40:34.334Z,26.05
2022-12-19T22:43:37.659Z,24.77
2022-12-19T22:46:40.756Z,22.10
2022-12-19T22:49:43.478Z,20.37
2022-12-19T22:52:47.875Z,21.40
2022-12-19T22:55:50.641Z,22.80
2022-12-19T22:58:57.092Z,23.55
2022-12-19T23:02:01.530Z,22.45
2022-12-19T23:05:04.713Z,23.00
2022-12-19T23:08:10.610Z,21.73
2022-12-19T23:11:18.237Z,23.10
2022-12-19T23:14:21.725Z,19.67
2022-12-19T23:17:24.691Z,23.25
2022-12-19T23:20:27.490Z,19.27
2022-12-19T23:23:32.834Z,22.87
2022-12-19T23:26:39.720Z,21.20
2022-12-19T23:29:42.747Z,21.13
2022-12-19T23:32:50.886Z,22.52
2022-12-19T23:35:54.000Z,22.77
2022-12-19T23:39:00.250Z,23.50
2022-12-19T23:45:24.416Z,21.77
2022-12-19T23:48:30.982Z,22.83
2022-12-19T23:51:33.809Z,20.20
2022-12-19T23:54:39.496Z,18.83
2022-12-19T23:57:43.642Z,19.77
